Time;durP1;ratioP1;P1;durP2;ratioP2;P2;SDS_P1;SDS_P2;PMS_P1;PMS_P2;Temp;Humidity;BMP_temperature;BMP_pressure;BME280_temperature;BME280_humidity;BME280_pressure;Samples;Min_cycle;Max_cycle;Signal;HPM_P1;HPM_P2
2022/12/11 00:00:23;;;;;;;;;36.25;31.75;;;;;4.65;62.86;100698.34;2096504;28;45757;-64
2022/12/11 00:01:23;;;;;;;;;35.50;33.25;;;;;4.64;62.73;100696.59;2096467;28;46293;-62
2022/12/11 00:02:23;;;;;;;;;38.50;36.00;;;;;4.63;62.45;100699.22;2096421;28;47087;-61
2022/12/11 00:03:24;;;;;;;;;41.50;36.00;;;;;4.63;63.11;100700.09;2096538;28;46577;-62
2022/12/11 00:04:24;;;;;;;;;38.75;35.75;;;;;4.60;62.64;100691.31;2096836;28;46268;-62
2022/12/11 00:05:25;;;;;;;;;33.25;28.75;;;;;4.58;62.90;100690.44;2096754;28;46536;-62
2022/12/11 00:06:25;;;;;;;;;38.00;33.75;;;;;4.62;62.59;100700.09;2096425;28;47099;-61
2022/12/11 00:07:25;;;;;;;;;41.50;37.00;;;;;4.62;62.56;100702.72;2097054;28;46685;-62
2022/12/11 00:08:26;;;;;;;;;38.50;36.75;;;;;4.61;62.52;100703.59;2096711;28;46802;-63
2022/12/11 00:09:26;;;;;;;;;38.00;36.50;;;;;4.60;62.71;100693.97;2096916;28;46570;-63
2022/12/11 00:10:26;;;;;;;;;42.50;35.75;;;;;4.60;62.86;100692.19;2087390;28;47197;-62
2022/12/11 00:11:27;;;;;;;;;38.00;37.00;;;;;4.59;62.90;100692.22;2087953;28;46218;-62
2022/12/11 00:12:30;;;;;;;;;37.00;33.50;;;;;4.58;62.91;100686.06;2097232;28;45181;-62
2022/12/11 00:13:30;;;;;;;;;38.40;36.20;;;;;4.58;62.74;100691.31;2096635;28;46871;-61
2022/12/11 00:14:31;;;;;;;;;44.75;36.75;;;;;4.59;62.52;100693.09;2096607;28;46149;-63
2022/12/11 00:15:31;;;;;;;;;44.00;39.00;;;;;4.58;62.88;100688.69;2096778;28;46241;-61
2022/12/11 00:16:31;;;;;;;;;43.75;35.50;;;;;4.57;62.91;100692.16;2096542;28;46260;-62
2022/12/11 00:17:32;;;;;;;;;34.00;29.25;;;;;4.55;62.63;100679.91;2096545;28;46177;-62
2022/12/11 00:18:32;;;;;;;;;39.25;34.75;;;;;4.52;62.64;100678.16;2096619;28;45752;-63
2022/12/11 00:19:33;;;;;;;;;36.00;34.00;;;;;4.51;62.38;100673.78;2095564;28;46814;-62
2022/12/11 00:20:33;;;;;;;;;32.75;28.25;;;;;4.50;62.56;100674.66;2096240;28;46816;-64
2022/12/11 00:21:33;;;;;;;;;25.00;23.25;;;;;4.50;62.22;100673.78;2096533;28;45671;-62
2022/12/11 00:22:34;;;;;;;;;28.75;27.75;;;;;4.48;62.22;100673.78;2096955;28;45918;-63
2022/12/11 00:23:35;;;;;;;;;23.25;20.75;;;;;4.48;62.66;100667.66;2086654;28;46150;-62
2022/12/11 00:24:35;;;;;;;;;23.40;22.80;;;;;4.46;62.45;100670.28;2087344;28;46715;-61
2022/12/11 00:25:43;;;;;;;;;27.25;25.75;;;;;4.45;62.47;100668.53;2094285;28;46532;-62
2022/12/11 00:26:44;;;;;;;;;28.00;28.00;;;;;4.44;62.12;100665.00;2096489;28;47354;-63
2022/12/11 00:27:45;;;;;;;;;17.50;14.50;;;;;4.44;62.65;100662.38;2096589;28;46904;-63
2022/12/11 00:28:46;;;;;;;;;28.20;27.60;;;;;4.44;62.79;100667.63;2096712;28;46421;-63
2022/12/11 00:29:46;;;;;;;;;33.50;30.00;;;;;4.44;62.48;100667.63;2096638;28;46668;-62
2022/12/11 00:30:47;;;;;;;;;33.50;33.00;;;;;4.43;62.36;100657.97;2096803;28;46732;-63
2022/12/11 00:31:47;;;;;;;;;33.75;31.00;;;;;4.44;62.75;100661.47;2096274;28;46503;-61
2022/12/11 00:32:50;;;;;;;;;44.25;35.75;;;;;4.43;62.79;100657.09;2091412;28;46285;-63
2022/12/11 00:33:50;;;;;;;;;36.80;34.00;;;;;4.40;62.79;100657.97;2096052;28;46613;-64
2022/12/11 00:34:51;;;;;;;;;33.75;30.50;;;;;4.39;62.36;100650.09;2096587;28;46286;-62
2022/12/11 00:35:51;;;;;;;;;33.50;31.75;;;;;4.37;62.94;100655.34;2096642;28;45545;-62
2022/12/11 00:36:52;;;;;;;;;29.25;27.25;;;;;4.36;62.73;100658.84;2096572;28;46430;-61
2022/12/11 00:37:52;;;;;;;;;32.50;26.75;;;;;4.36;63.02;100657.97;2095904;28;46423;-60
2022/12/11 00:38:53;;;;;;;;;26.00;25.50;;;;;4.36;62.44;100652.72;2095973;28;46581;-63
2022/12/11 00:39:54;;;;;;;;;36.75;32.75;;;;;4.36;63.05;100656.22;2088425;28;46346;-64
2022/12/11 00:40:58;;;;;;;;;35.75;29.75;;;;;4.37;62.52;100654.47;2094117;28;46374;-61
2022/12/11 00:41:58;;;;;;;;;34.20;28.60;;;;;4.37;62.86;100652.72;2096608;28;46912;-62
2022/12/11 00:42:59;;;;;;;;;28.50;27.25;;;;;4.37;62.66;100655.34;2096587;28;46615;-62
2022/12/11 00:43:59;;;;;;;;;34.25;33.50;;;;;4.36;62.74;100653.59;2096520;28;46333;-62
2022/12/11 00:44:59;;;;;;;;;33.00;27.50;;;;;4.38;62.71;100650.97;2095304;28;45696;-62
2022/12/11 00:46:00;;;;;;;;;28.25;27.50;;;;;4.37;62.90;100652.72;2085126;28;46371;-62
2022/12/11 00:47:00;;;;;;;;;28.00;26.50;;;;;4.36;62.97;100650.97;2062004;28;46460;-63
2022/12/11 00:48:00;;;;;;;;;29.00;27.75;;;;;4.37;62.81;100649.22;2066351;28;46355;-62
2022/12/11 00:49:01;;;;;;;;;35.50;31.00;;;;;4.36;62.66;100656.22;2094872;28;46756;-63
2022/12/11 00:50:01;;;;;;;;;31.25;29.00;;;;;4.37;62.62;100651.84;2095343;28;46622;-61
2022/12/11 00:51:02;;;;;;;;;34.00;29.50;;;;;4.36;62.50;100645.72;2095696;28;46417;-62
2022/12/11 00:52:02;;;;;;;;;31.00;26.75;;;;;4.36;63.05;100640.47;2095555;28;46455;-64
2022/12/11 00:53:04;;;;;;;;;27.00;27.00;;;;;4.38;62.60;100643.97;2095540;28;46176;-63
2022/12/11 00:54:05;;;;;;;;;30.20;27.40;;;;;4.39;62.47;100645.72;2095991;28;46536;-62
2022/12/11 00:55:06;;;;;;;;;35.40;29.20;;;;;4.40;62.63;100644.84;2095493;28;46768;-60
2022/12/11 00:56:15;;;;;;;;;34.00;31.75;;;;;4.43;62.44;100649.22;2095210;28;46683;-62
2022/12/11 00:57:15;;;;;;;;;34.40;28.00;;;;;4.41;62.43;100646.59;2091757;28;46432;-62
2022/12/11 00:58:15;;;;;;;;;28.75;25.00;;;;;4.42;62.56;100644.84;2095562;28;46913;-64
2022/12/11 00:59:16;;;;;;;;;34.25;30.00;;;;;4.39;62.46;100640.47;2087370;28;46339;-64
2022/12/11 01:00:16;;;;;;;;;37.25;28.25;;;;;4.40;62.81;100641.34;2086894;28;47743;-62
2022/12/11 01:01:21;;;;;;;;;30.75;23.50;;;;;4.40;62.65;100643.97;2089446;28;46399;-64
2022/12/11 01:02:21;;;;;;;;;41.00;33.20;;;;;4.39;62.90;100648.34;2087571;28;46399;-63
2022/12/11 01:03:21;;;;;;;;;27.25;26.00;;;;;4.39;62.33;100648.34;2093545;28;46343;-62
2022/12/11 01:04:22;;;;;;;;;31.00;28.75;;;;;4.39;62.70;100653.59;2086140;28;46147;-61
2022/12/11 01:05:22;;;;;;;;;26.00;26.00;;;;;4.38;62.21;100651.84;2086499;28;46318;-63
2022/12/11 01:06:25;;;;;;;;;22.00;21.50;;;;;4.37;62.50;100646.59;2095621;28;46760;-64
2022/12/11 01:07:25;;;;;;;;;27.60;25.80;;;;;4.35;62.76;100643.09;2078501;28;46389;-61
2022/12/11 01:08:26;;;;;;;;;25.50;22.75;;;;;4.33;62.24;100637.84;2078801;28;46245;-61
2022/12/11 01:10:45;;;;;;;;;30.60;27.20;;;;;4.34;62.81;100646.59;2087803;28;46603;-63
2022/12/11 01:11:45;;;;;;;;;32.25;27.25;;;;;4.32;62.23;100643.97;2095548;28;46686;-62
2022/12/11 01:12:46;;;;;;;;;36.75;33.75;;;;;4.33;62.38;100647.47;2095562;28;47532;-63
2022/12/11 01:13:46;;;;;;;;;30.25;28.25;;;;;4.30;62.50;100637.81;2095012;28;46762;-63
2022/12/11 01:14:46;;;;;;;;;24.25;24.25;;;;;4.31;62.51;100639.56;2095689;28;46324;-63
2022/12/11 01:15:47;;;;;;;;;26.00;23.00;;;;;4.31;62.17;100641.31;2095433;28;47134;-64
2022/12/11 01:16:47;;;;;;;;;27.25;26.00;;;;;4.29;62.54;100638.69;2095938;28;45573;-64
2022/12/11 01:17:48;;;;;;;;;24.25;22.50;;;;;4.27;62.38;100639.56;2095851;28;46397;-63
2022/12/11 01:18:48;;;;;;;;;24.20;23.20;;;;;4.23;62.34;100638.69;2096418;28;45908;-62
2022/12/11 01:19:49;;;;;;;;;30.75;26.25;;;;;4.22;62.50;100636.06;2096363;28;45967;-64
2022/12/11 01:20:49;;;;;;;;;27.25;24.25;;;;;4.20;62.40;100638.69;2094754;28;45900;-63
2022/12/11 01:21:50;;;;;;;;;26.00;23.75;;;;;4.20;62.56;100635.19;2095259;28;46461;-62
2022/12/11 01:22:59;;;;;;;;;24.00;20.00;;;;;4.22;62.75;100630.81;2095307;28;45804;-62
2022/12/11 01:23:59;;;;;;;;;24.00;23.80;;;;;4.23;62.54;100625.56;2094783;28;46516;-63
2022/12/11 01:25:00;;;;;;;;;34.00;28.75;;;;;4.24;62.78;100629.94;2096422;28;46300;-63
2022/12/11 01:26:08;;;;;;;;;30.50;23.75;;;;;4.25;62.84;100629.06;2096094;28;46469;-64
2022/12/11 01:27:08;;;;;;;;;32.00;27.80;;;;;4.25;62.33;100628.19;2096417;28;46290;-61
2022/12/11 01:28:09;;;;;;;;;29.25;23.50;;;;;4.25;62.82;100623.81;2096151;28;46702;-62
2022/12/11 01:29:10;;;;;;;;;26.75;25.50;;;;;4.26;62.45;100630.81;2096454;28;46621;-63
2022/12/11 01:30:12;;;;;;;;;23.50;20.75;;;;;4.26;62.59;100628.19;2096331;28;46907;-61
2022/12/11 01:31:14;;;;;;;;;30.80;27.40;;;;;4.23;62.62;100628.19;2096184;28;46505;-61
2022/12/11 01:32:15;;;;;;;;;24.40;23.00;;;;;4.24;62.99;100635.19;2095720;28;46418;-62
2022/12/11 01:33:15;;;;;;;;;30.50;28.25;;;;;4.25;63.10;100629.06;2091325;28;46298;-62
2022/12/11 01:34:16;;;;;;;;;29.50;26.25;;;;;4.26;62.76;100632.56;2095385;28;46047;-61
2022/12/11 01:35:17;;;;;;;;;27.75;25.00;;;;;4.27;62.61;100642.19;2096253;28;46855;-63
2022/12/11 01:36:20;;;;;;;;;33.20;28.60;;;;;4.26;62.67;100630.81;2096229;28;46597;-63
2022/12/11 01:37:20;;;;;;;;;26.20;24.80;;;;;4.26;62.62;100632.56;2096410;28;47252;-63
2022/12/11 01:38:21;;;;;;;;;32.75;27.75;;;;;4.24;62.28;100632.56;2087057;28;47192;-63
2022/12/11 01:39:21;;;;;;;;;29.25;25.50;;;;;4.23;62.75;100632.56;2087798;28;45657;-63
2022/12/11 01:40:22;;;;;;;;;25.75;24.50;;;;;4.23;62.97;100630.81;2096031;28;46440;-63
2022/12/11 01:41:22;;;;;;;;;29.25;26.75;;;;;4.24;63.01;100636.94;2096446;28;46193;-63
2022/12/11 01:42:24;;;;;;;;;22.75;22.50;;;;;4.26;62.70;100640.44;2096191;28;46479;-63
2022/12/11 01:43:24;;;;;;;;;32.00;29.60;;;;;4.27;63.01;100647.44;2096072;28;46250;-61
2022/12/11 01:44:24;;;;;;;;;33.25;27.25;;;;;4.25;62.85;100650.06;2096225;28;46829;-63
2022/12/11 01:45:43;;;;;;;;;31.00;26.75;;;;;4.24;62.51;100642.19;2097815;28;45916;-63
2022/12/11 01:46:43;;;;;;;;;25.60;24.00;;;;;4.25;62.74;100651.81;2097123;28;48148;-60
2022/12/11 01:47:44;;;;;;;;;28.50;26.25;;;;;4.24;62.99;100644.81;2097116;28;46845;-63
2022/12/11 01:48:44;;;;;;;;;27.50;26.00;;;;;4.23;62.65;100645.69;2097338;28;48118;-62
2022/12/11 01:49:44;;;;;;;;;28.75;27.75;;;;;4.21;62.41;100639.56;2097913;28;45599;-63
2022/12/11 01:50:52;;;;;;;;;24.00;22.50;;;;;4.20;63.08;100643.06;2097784;28;45994;-62
2022/12/11 01:51:59;;;;;;;;;21.80;20.00;;;;;4.18;62.74;100643.03;2097671;28;46414;-64
2022/12/11 01:53:01;;;;;;;;;17.00;14.60;;;;;4.16;63.09;100638.66;2097625;28;46531;-64
2022/12/11 01:54:07;;;;;;;;;25.20;22.60;;;;;4.14;62.69;100643.91;2097708;28;47076;-63
2022/12/11 01:55:08;;;;;;;;;28.40;26.00;;;;;4.13;63.03;100642.16;2097489;28;46563;-64
2022/12/11 01:56:09;;;;;;;;;29.80;27.60;;;;;4.12;62.62;100651.78;2097561;28;46485;-63
2022/12/11 01:57:14;;;;;;;;;16.60;14.80;;;;;4.12;62.73;100645.66;2097603;28;46857;-62
2022/12/11 01:58:16;;;;;;;;;23.00;21.20;;;;;4.12;63.14;100643.91;2097682;28;47079;-64
2022/12/11 01:59:21;;;;;;;;;26.60;23.20;;;;;4.14;62.74;100646.53;2097526;28;46734;-64
2022/12/11 02:00:22;;;;;;;;;28.00;23.80;;;;;4.15;62.99;100650.91;2097494;28;46833;-62
2022/12/11 02:01:32;;;;;;;;;22.00;21.50;;;;;4.15;62.57;100650.91;2097466;28;45956;-63
2022/12/11 02:02:32;;;;;;;;;24.20;23.20;;;;;4.14;62.91;100651.78;2089188;28;46550;-64
2022/12/11 02:03:33;;;;;;;;;23.50;20.50;;;;;4.15;62.56;100650.91;2096434;28;48000;-64
2022/12/11 02:04:36;;;;;;;;;25.25;21.00;;;;;4.16;62.39;100657.03;2097164;28;45990;-63
2022/12/11 02:05:37;;;;;;;;;23.20;20.20;;;;;4.16;62.76;100651.78;2097431;28;46484;-64
2022/12/11 02:06:42;;;;;;;;;24.20;21.80;;;;;4.16;62.56;100655.28;2097555;28;46754;-64
2022/12/11 02:07:48;;;;;;;;;26.80;23.20;;;;;4.16;62.47;100650.03;2097589;28;46483;-61
2022/12/11 02:08:48;;;;;;;;;27.60;25.40;;;;;4.17;62.29;100654.41;2097481;28;47403;-63
2022/12/11 02:09:49;;;;;;;;;22.25;22.25;;;;;4.19;62.81;100647.41;2097261;28;46619;-62
2022/12/11 02:11:06;;;;;;;;;20.80;19.40;;;;;4.19;62.81;100652.66;2097941;28;45948;-62
2022/12/11 02:12:29;;;;;;;;;19.00;18.60;;;;;4.16;62.70;100639.53;2097351;28;45946;-62
2022/12/11 02:13:46;;;;;;;;;26.20;21.60;;;;;4.13;62.47;100642.16;2097380;28;46402;-62
2022/12/11 02:14:55;;;;;;;;;23.00;21.80;;;;;4.10;62.28;100642.16;2097111;28;47059;-62
2022/12/11 02:16:17;;;;;;;;;26.60;23.20;;;;;4.04;62.40;100628.97;2097381;28;46483;-64
2022/12/11 02:17:28;;;;;;;;;25.00;22.00;;;;;4.03;62.60;100637.72;2097363;28;46479;-64
2022/12/11 02:18:47;;;;;;;;;21.00;19.00;;;;;4.00;62.79;100635.09;2097565;28;46949;-63
2022/12/11 02:20:16;;;;;;;;;27.00;24.00;;;;;3.96;62.53;100636.84;2096647;28;46565;-63
2022/12/11 02:21:24;;;;;;;;;20.40;18.00;;;;;3.94;62.32;100629.81;2097591;28;46960;-63
2022/12/11 02:22:57;;;;;;;;;23.80;20.20;;;;;3.91;62.47;100633.31;2097142;28;46648;-63
2022/12/11 02:24:26;;;;;;;;;23.60;18.40;;;;;3.92;62.58;100631.56;2095739;28;46623;-63
2022/12/11 02:25:44;;;;;;;;;24.00;21.80;;;;;3.90;62.63;100631.56;2088317;28;46343;-63
2022/12/11 02:26:59;;;;;;;;;20.20;19.20;;;;;3.88;62.74;100635.06;2088088;28;46811;-62
2022/12/11 02:28:31;;;;;;;;;19.20;18.60;;;;;3.83;62.84;100628.03;2088166;28;46421;-62
2022/12/11 02:29:37;;;;;;;;;19.80;18.40;;;;;3.84;62.81;100629.81;2087861;28;46389;-63
2022/12/11 02:30:41;;;;;;;;;16.00;15.40;;;;;3.86;62.85;100621.94;2088313;28;46319;-63
2022/12/11 02:31:49;;;;;;;;;17.80;17.80;;;;;3.87;62.80;100622.81;2088199;28;46826;-61
2022/12/11 02:32:49;;;;;;;;;20.60;16.40;;;;;3.87;62.80;100620.19;2087665;28;47756;-62
2022/12/11 02:34:10;;;;;;;;;19.75;15.50;;;;;3.84;62.69;100621.91;2088355;28;46269;-63
2022/12/11 02:35:29;;;;;;;;;18.40;15.80;;;;;3.83;62.81;100622.78;2088177;28;46285;-63
2022/12/11 02:36:37;;;;;;;;;20.00;20.00;;;;;3.83;62.75;100625.41;2088204;28;46580;-62
2022/12/11 02:37:42;;;;;;;;;19.80;17.40;;;;;3.81;62.81;100616.66;2087732;28;46427;-63
2022/12/11 02:38:49;;;;;;;;;14.60;13.40;;;;;3.80;62.36;100619.25;2088140;28;46404;-62
2022/12/11 02:39:53;;;;;;;;;23.20;20.40;;;;;3.79;62.53;100621.00;2088260;28;46662;-62
2022/12/11 02:40:56;;;;;;;;;20.60;20.20;;;;;3.79;62.57;100614.88;2086172;28;46780;-63
2022/12/11 02:41:58;;;;;;;;;20.40;19.00;;;;;3.78;62.73;100615.75;2088152;28;46637;-62
2022/12/11 02:43:03;;;;;;;;;19.80;17.60;;;;;3.77;62.80;100614.00;2088140;28;45877;-64
2022/12/11 02:44:04;;;;;;;;;19.80;16.40;;;;;3.76;62.72;100614.88;2088111;28;46751;-60
2022/12/11 02:45:07;;;;;;;;;20.00;19.25;;;;;3.74;62.83;100608.75;2088300;28;46155;-63
2022/12/11 02:46:08;;;;;;;;;21.40;15.40;;;;;3.74;62.75;100616.63;2088128;28;46721;-63
2022/12/11 02:47:12;;;;;;;;;21.20;18.20;;;;;3.74;62.95;100611.38;2078972;28;48145;-63
2022/12/11 02:48:15;;;;;;;;;14.60;14.40;;;;;3.72;62.77;100603.50;2079801;28;46880;-64
2022/12/11 02:49:18;;;;;;;;;16.60;15.60;;;;;3.74;62.72;100607.00;2087570;28;46002;-63
2022/12/11 02:50:20;;;;;;;;;23.80;20.20;;;;;3.75;63.11;100605.25;2078863;28;46601;-63
2022/12/11 02:51:26;;;;;;;;;19.40;18.00;;;;;3.73;62.93;100604.38;2080104;28;46554;-61
2022/12/11 02:52:30;;;;;;;;;20.00;19.60;;;;;3.73;62.75;100607.00;2088368;28;46675;-62
2022/12/11 02:53:34;;;;;;;;;23.60;21.20;;;;;3.70;63.43;100594.75;2088364;28;45954;-62
2022/12/11 02:54:38;;;;;;;;;20.60;20.20;;;;;3.72;63.34;100600.88;2088837;28;45710;-64
2022/12/11 02:55:40;;;;;;;;;19.40;19.40;;;;;3.73;63.06;100605.25;2079488;28;46566;-65
2022/12/11 02:56:55;;;;;;;;;22.20;19.20;;;;;3.73;63.08;100597.38;2079837;28;46838;-63
2022/12/11 02:58:03;;;;;;;;;22.20;20.40;;;;;3.74;63.05;100603.50;2086101;28;47907;-62
2022/12/11 02:59:09;;;;;;;;;21.20;19.80;;;;;3.73;63.30;100600.00;2088616;28;46539;-63
2022/12/11 03:00:11;;;;;;;;;19.00;17.00;;;;;3.74;63.07;100601.75;2088159;28;46310;-64
2022/12/11 03:01:11;;;;;;;;;21.60;18.00;;;;;3.73;63.02;100602.63;2088033;28;46866;-62
2022/12/11 03:02:14;;;;;;;;;18.00;18.00;;;;;3.73;63.29;100610.50;2087771;28;47328;-64
2022/12/11 03:03:15;;;;;;;;;17.80;17.60;;;;;3.73;62.87;100612.25;2093689;28;46495;-62
2022/12/11 03:04:15;;;;;;;;;18.75;18.75;;;;;3.72;62.93;100621.88;2097544;28;45520;-64
2022/12/11 03:05:16;;;;;;;;;23.00;19.00;;;;;3.73;63.36;100621.00;2097374;28;46869;-64
2022/12/11 03:06:21;;;;;;;;;16.50;16.25;;;;;3.74;63.34;100624.50;2097084;28;47654;-64
2022/12/11 03:07:26;;;;;;;;;20.60;18.60;;;;;3.74;63.27;100622.75;2097641;28;46150;-62
2022/12/11 03:08:26;;;;;;;;;19.80;18.40;;;;;3.73;62.92;100622.75;2097502;28;46027;-64
2022/12/11 03:09:27;;;;;;;;;24.50;18.75;;;;;3.72;62.77;100618.38;2097411;28;46502;-61
2022/12/11 03:10:27;;;;;;;;;22.50;19.25;;;;;3.72;62.52;100615.75;2089649;28;48703;-63
2022/12/11 03:11:28;;;;;;;;;20.50;19.25;;;;;3.71;62.85;100608.75;2094614;28;46223;-64
2022/12/11 03:12:33;;;;;;;;;22.50;16.75;;;;;3.69;63.01;100611.38;2097065;28;46788;-64
2022/12/11 03:13:33;;;;;;;;;21.40;18.60;;;;;3.69;62.92;100610.50;2096795;28;45566;-62
2022/12/11 03:14:35;;;;;;;;;21.50;18.00;;;;;3.69;63.02;100603.50;2096952;28;46403;-63
2022/12/11 03:15:53;;;;;;;;;25.60;20.20;;;;;3.70;62.89;100610.50;2097019;28;46736;-63
2022/12/11 03:17:03;;;;;;;;;16.60;16.00;;;;;3.70;62.82;100601.75;2097281;28;45815;-62
2022/12/11 03:18:17;;;;;;;;;21.60;18.20;;;;;3.68;63.01;100603.47;2096963;28;46635;-62
2022/12/11 03:19:34;;;;;;;;;23.20;22.40;;;;;3.66;63.40;100603.44;2096915;28;47132;-64
2022/12/11 03:20:53;;;;;;;;;28.40;23.60;;;;;3.66;63.04;100595.56;2096802;28;46560;-63
2022/12/11 03:22:09;;;;;;;;;14.40;11.80;;;;;3.68;63.38;100599.09;2097301;28;46415;-62
2022/12/11 03:23:25;;;;;;;;;25.20;23.00;;;;;3.68;63.22;100590.34;2093793;28;45377;-64
2022/12/11 03:24:51;;;;;;;;;22.20;22.20;;;;;3.70;63.17;100600.00;2097128;28;46717;-63
2022/12/11 03:25:57;;;;;;;;;26.20;22.20;;;;;3.71;63.38;100598.25;2087758;28;46775;-61
2022/12/11 03:27:31;;;;;;;;;23.60;19.40;;;;;3.72;63.47;100597.38;2089420;28;47364;-62
2022/12/11 03:28:40;;;;;;;;;24.00;19.20;;;;;3.71;63.37;100596.50;2073358;28;45609;-62
2022/12/11 03:29:53;;;;;;;;;25.20;18.60;;;;;3.70;63.06;100592.13;2080285;28;46882;-62
2022/12/11 03:30:56;;;;;;;;;22.40;18.40;;;;;3.68;63.00;100593.84;2088195;28;46858;-62
2022/12/11 03:32:06;;;;;;;;;23.20;20.60;;;;;3.67;63.34;100586.84;2087508;28;46327;-63
2022/12/11 03:33:12;;;;;;;;;24.60;23.60;;;;;3.68;63.01;100596.47;2090177;28;45918;-62
2022/12/11 03:34:19;;;;;;;;;17.00;15.80;;;;;3.66;63.34;100597.31;2089228;28;46689;-62
2022/12/11 03:35:26;;;;;;;;;24.80;21.80;;;;;3.64;63.34;100594.69;2092956;28;46523;-63
2022/12/11 03:36:33;;;;;;;;;16.00;15.80;;;;;3.64;63.28;100602.56;2087867;28;46452;-61
2022/12/11 03:37:38;;;;;;;;;19.80;17.20;;;;;3.62;63.12;100596.44;2087680;28;46799;-60
2022/12/11 03:39:14;;;;;;;;;20.60;16.80;;;;;3.62;62.84;100599.06;2087831;28;46847;-61
2022/12/11 03:40:17;;;;;;;;;19.20;15.40;;;;;3.63;62.90;100603.44;2054804;28;45925;-61
2022/12/11 03:41:21;;;;;;;;;17.80;15.80;;;;;3.63;62.91;100602.56;2057256;28;46123;-63
2022/12/11 03:42:23;;;;;;;;;17.20;14.20;;;;;3.63;62.91;100595.56;2057476;28;46678;-62
2022/12/11 03:43:25;;;;;;;;;18.60;16.80;;;;;3.63;62.81;100595.56;2054924;28;46755;-63
2022/12/11 03:44:28;;;;;;;;;17.40;17.40;;;;;3.62;63.07;100598.19;2054804;28;45658;-62
2022/12/11 03:45:29;;;;;;;;;19.80;19.80;;;;;3.62;63.22;100598.19;2054614;28;47413;-63
2022/12/11 03:46:34;;;;;;;;;18.50;18.50;;;;;3.63;62.85;100598.19;2054722;28;46891;-63
2022/12/11 03:47:36;;;;;;;;;22.80;18.40;;;;;3.61;62.92;100599.94;2055012;28;47354;-62
2022/12/11 03:48:40;;;;;;;;;22.60;17.80;;;;;3.60;62.87;100597.31;2055092;28;46168;-63
2022/12/11 03:49:43;;;;;;;;;14.00;12.00;;;;;3.56;63.08;100593.81;2055069;28;46596;-62
2022/12/11 03:50:46;;;;;;;;;17.80;16.40;;;;;3.55;63.26;100600.78;2054458;28;46824;-62
2022/12/11 03:51:50;;;;;;;;;13.80;11.20;;;;;3.55;62.86;100600.78;2054703;28;46537;-61
2022/12/11 03:52:52;;;;;;;;;22.00;19.80;;;;;3.53;62.91;100599.03;2055231;28;46182;-62
2022/12/11 03:53:54;;;;;;;;;17.20;16.40;;;;;3.52;63.25;100595.53;2054928;28;46577;-61
2022/12/11 03:54:59;;;;;;;;;17.80;16.60;;;;;3.52;63.42;100598.16;2054684;28;46785;-62
2022/12/11 03:56:02;;;;;;;;;20.20;20.00;;;;;3.52;63.24;100592.91;2054542;28;46811;-63
2022/12/11 03:57:04;;;;;;;;;17.20;16.60;;;;;3.52;63.59;100600.75;2054772;28;47245;-62
2022/12/11 03:58:05;;;;;;;;;21.00;20.80;;;;;3.53;63.30;100596.41;2054776;28;46618;-61
2022/12/11 03:59:06;;;;;;;;;19.50;17.50;;;;;3.52;63.23;100599.88;2054972;28;45732;-62
2022/12/11 04:00:10;;;;;;;;;18.25;17.00;;;;;3.52;63.52;100598.16;2054504;28;46627;-62
2022/12/11 04:01:10;;;;;;;;;23.20;19.60;;;;;3.53;63.56;100599.03;2054588;28;46767;-61
2022/12/11 04:02:11;;;;;;;;;21.50;16.50;;;;;3.54;63.71;100606.00;2054811;28;46503;-62
2022/12/11 04:03:14;;;;;;;;;20.50;19.25;;;;;3.52;63.36;100599.88;2058184;28;46233;-60
2022/12/11 04:04:15;;;;;;;;;19.40;17.40;;;;;3.50;63.56;100594.63;2062639;28;47710;-61
2022/12/11 04:05:15;;;;;;;;;18.75;16.25;;;;;3.53;63.73;100596.41;2063229;28;45752;-60
2022/12/11 04:06:16;;;;;;;;;17.25;17.00;;;;;3.52;63.63;100589.41;2067773;28;46787;-60
2022/12/11 04:07:16;;;;;;;;;16.25;15.50;;;;;3.51;63.43;100582.41;2062293;28;46494;-61
2022/12/11 04:08:22;;;;;;;;;20.75;17.75;;;;;3.52;63.37;100585.03;2069356;28;46259;-61
2022/12/11 04:09:22;;;;;;;;;23.80;18.40;;;;;3.52;63.56;100584.16;2068523;28;46296;-61
2022/12/11 04:10:23;;;;;;;;;17.00;16.25;;;;;3.51;63.58;100579.78;2069626;28;46816;-61
2022/12/11 04:11:35;;;;;;;;;26.75;22.50;;;;;3.50;63.50;100576.28;2070858;28;46483;-63
2022/12/11 04:12:35;;;;;;;;;17.80;15.80;;;;;3.50;63.71;100575.41;2068968;28;45882;-60
2022/12/11 04:13:37;;;;;;;;;26.25;20.00;;;;;3.50;63.63;100583.28;2067953;28;46548;-62
2022/12/11 04:15:55;;;;;;;;;21.80;20.00;;;;;3.49;63.70;100576.28;2070657;28;46610;-62
2022/12/11 04:16:58;;;;;;;;;17.75;17.75;;;;;3.49;63.64;100573.66;2067368;28;46334;-62
2022/12/11 04:24:35;;;;;;;;;20.40;19.00;;;;;3.43;63.45;100582.38;2096895;28;46415;-62
2022/12/11 04:25:35;;;;;;;;;16.25;14.50;;;;;3.42;63.31;100582.34;2096455;28;46842;-63
2022/12/11 04:26:36;;;;;;;;;16.50;16.50;;;;;3.39;63.39;100577.97;2096708;28;46484;-62
2022/12/11 04:27:48;;;;;;;;;15.00;14.50;;;;;3.38;63.15;100591.06;2096707;28;45235;-62
2022/12/11 04:28:49;;;;;;;;;18.00;13.80;;;;;3.33;63.04;100580.56;2092943;28;46635;-63
2022/12/11 04:29:49;;;;;;;;;13.40;13.20;;;;;3.31;63.10;100584.06;2096675;28;46917;-62
2022/12/11 04:30:50;;;;;;;;;15.00;13.50;;;;;3.29;63.29;100581.41;2096463;28;46169;-62
2022/12/11 04:31:50;;;;;;;;;19.25;16.75;;;;;3.27;63.27;100585.75;2096138;28;46363;-62
2022/12/11 04:32:52;;;;;;;;;16.50;15.50;;;;;3.26;63.32;100584.00;2096570;28;46652;-61
2022/12/11 04:33:52;;;;;;;;;15.00;15.00;;;;;3.24;63.33;100580.50;2096519;28;46280;-63
2022/12/11 04:34:53;;;;;;;;;18.50;16.50;;;;;3.21;63.32;100578.75;2096746;28;46439;-63
2022/12/11 04:35:53;;;;;;;;;15.00;12.00;;;;;3.20;63.35;100570.88;2096252;28;47211;-63
2022/12/11 04:36:53;;;;;;;;;19.00;17.50;;;;;3.21;63.49;100575.25;2096532;28;47244;-61
2022/12/11 04:37:54;;;;;;;;;16.00;15.00;;;;;3.22;63.39;100569.13;2096490;28;46667;-63
2022/12/11 04:38:54;;;;;;;;;13.00;12.50;;;;;3.24;63.55;100562.16;2096730;28;46771;-61
2022/12/11 04:39:54;;;;;;;;;12.25;11.50;;;;;3.25;63.49;100574.41;2086867;28;46116;-61
2022/12/11 04:40:59;;;;;;;;;16.50;16.50;;;;;3.27;63.60;100567.41;2087092;28;46312;-62
2022/12/11 04:41:59;;;;;;;;;14.40;14.00;;;;;3.26;63.26;100565.66;2096246;28;46921;-61
2022/12/11 04:43:00;;;;;;;;;18.50;18.25;;;;;3.25;63.64;100563.91;2096766;28;46230;-63
2022/12/11 04:44:00;;;;;;;;;20.75;15.75;;;;;3.23;63.34;100568.28;2095870;28;46169;-63
2022/12/11 04:45:01;;;;;;;;;17.00;14.75;;;;;3.20;63.58;100566.50;2095944;28;46711;-62
2022/12/11 04:46:01;;;;;;;;;20.00;16.00;;;;;3.18;63.62;100564.75;2096282;28;46450;-63
2022/12/11 04:47:01;;;;;;;;;22.00;18.25;;;;;3.18;63.45;100559.50;2096258;28;45802;-61
2022/12/11 04:48:02;;;;;;;;;17.25;17.25;;;;;3.19;63.79;100567.38;2096283;28;46381;-62
2022/12/11 04:49:02;;;;;;;;;21.00;19.75;;;;;3.19;63.37;100564.75;2096651;28;46783;-62
2022/12/11 04:50:06;;;;;;;;;18.25;17.00;;;;;3.19;63.64;100564.75;2096641;28;45622;-61
2022/12/11 04:51:07;;;;;;;;;18.00;15.20;;;;;3.18;63.57;100563.00;2096556;28;47074;-61
2022/12/11 04:52:07;;;;;;;;;16.25;15.25;;;;;3.17;64.06;100565.59;2096418;28;46541;-63
2022/12/11 04:53:08;;;;;;;;;19.75;16.50;;;;;3.16;63.82;100567.34;2096480;28;48161;-61
2022/12/11 04:54:08;;;;;;;;;20.25;19.50;;;;;3.15;63.37;100562.97;2096342;28;46731;-62
2022/12/11 04:55:10;;;;;;;;;22.25;21.00;;;;;3.13;63.71;100559.47;2096311;28;48387;-61
2022/12/11 04:56:14;;;;;;;;;20.60;20.60;;;;;3.14;63.88;100561.22;2096103;28;46743;-62
2022/12/11 04:57:15;;;;;;;;;12.80;12.60;;;;;3.15;64.12;100556.84;2096625;28;46702;-62
2022/12/11 04:58:15;;;;;;;;;23.40;21.00;;;;;3.17;64.09;100553.34;2096290;28;46085;-61
2022/12/11 04:59:16;;;;;;;;;19.50;13.50;;;;;3.19;63.85;100550.78;2094093;28;46300;-61
2022/12/11 05:00:16;;;;;;;;;17.50;16.25;;;;;3.20;63.93;100557.78;2096244;28;46841;-64
2022/12/11 05:01:20;;;;;;;;;21.25;15.00;;;;;3.20;64.10;100557.78;2096540;28;46538;-62
2022/12/11 05:02:20;;;;;;;;;18.80;15.40;;;;;3.20;63.80;100553.41;2096089;28;46940;-62